Aeroporto :







RITROVATECI SU...

 
LOGIN :

Iscrizione | Disclaimer

   EN    FR    IT 

 









Sommario :    VFR   VFR Marginale   IFR   IFR Intensivo   IFR Molto Intensivo
Visibilità : 
Base nubi : 
>= 8 km
>= 3000ft
5 / 8 km
1000 / 3000 ft
1500m / 5 km
500 / 1000 ft
800 / 1500m
200 / 500 ft
< 800m
< 200 ft
Simboli :   Temporali  Nebbia  Neve Forte  Precipitazioni Forti  Vento > 20 kt






- Altitudine del aeroporto : 148 ft


KLWM - Lawrence Municipal

ULTIMO METAR :
  • 062054Z 00000KT 1 1/2SM -SN BR OVC024 M01/M03 A2997 RMK AO2 SLP151 P0002 60004 T10111028 58014

METARs OBSOLETI :
  • 062004Z 17003KT 1SM -SN BR OVC021 M01/M03 A2999 RMK AO2 P0000 T10111028
  • 061933Z 18003KT 1/2SM SN FZFG VV011 M02/M03 A2999 RMK AO2 P0001 T10171033
  • 061911Z 21004KT 1SM -SN OVC024 M01/M04 A3000 RMK AO2 P0000 T10111039
  • 061901Z 20004KT 1 3/4SM -SN BKN030 OVC041 M01/M04 A3000 RMK AO2 P0000 T10061044
  • 061854Z 19004KT 4SM -SN OVC034 M01/M05 A3000 RMK AO2 SNB38 SLP160 P0000 T10061050

TAF N/A



MetMap, La meteo Aeronautica in un colpo d'occhio ! - Copyright ORBIFLY Dicembre 2007 - Disclaimer

ORBIFLY MET'MAP TEAM :

Programmazione e sviluppo : Alexandra Zaïnal
Concezione : Baudouin d'Aumeries
Aiuto per la programmazione : Marc-Olivier Méhu
Supporto tecnico e logistico : Manuel Goepfert
Aiuto per la traduzione : Arnaldo La Scala

Contatto : metmap@orbifly.com




FONTI E CREDITI :

   NOAA